sensor_id;sensor_type;location;lat;lon;timestamp;P1;durP1;ratioP1;P2;durP2;ratioP2
60032;SDS011;45905;50.570;10.428;2022-08-01T00:00:50;3.70;;;2.30;;
60032;SDS011;45905;50.570;10.428;2022-08-01T00:03:17;2.67;;;2.47;;
60032;SDS011;45905;50.570;10.428;2022-08-01T00:05:44;6.30;;;2.90;;
60032;SDS011;45905;50.570;10.428;2022-08-01T00:08:12;9.80;;;2.80;;
60032;SDS011;45905;50.570;10.428;2022-08-01T00:10:40;6.20;;;2.63;;
60032;SDS011;45905;50.570;10.428;2022-08-01T00:13:07;2.50;;;2.30;;
60032;SDS011;45905;50.570;10.428;2022-08-01T00:15:35;4.23;;;3.00;;
60032;SDS011;45905;50.570;10.428;2022-08-01T00:18:03;3.80;;;3.10;;
60032;SDS011;45905;50.570;10.428;2022-08-01T00:20:30;6.00;;;3.00;;
60032;SDS011;45905;50.570;10.428;2022-08-01T00:22:57;5.40;;;3.50;;
60032;SDS011;45905;50.570;10.428;2022-08-01T00:25:24;5.03;;;2.90;;
60032;SDS011;45905;50.570;10.428;2022-08-01T00:28:00;3.63;;;3.20;;
60032;SDS011;45905;50.570;10.428;2022-08-01T00:30:29;3.03;;;2.23;;
60032;SDS011;45905;50.570;10.428;2022-08-01T00:32:57;5.40;;;3.00;;
60032;SDS011;45905;50.570;10.428;2022-08-01T00:35:24;2.80;;;2.60;;
60032;SDS011;45905;50.570;10.428;2022-08-01T00:37:52;4.73;;;3.03;;
60032;SDS011;45905;50.570;10.428;2022-08-01T00:40:19;4.73;;;3.00;;
60032;SDS011;45905;50.570;10.428;2022-08-01T00:42:47;3.40;;;2.77;;
60032;SDS011;45905;50.570;10.428;2022-08-01T00:45:14;3.47;;;3.03;;
60032;SDS011;45905;50.570;10.428;2022-08-01T00:47:41;7.30;;;4.23;;
60032;SDS011;45905;50.570;10.428;2022-08-01T00:50:08;4.13;;;3.30;;
60032;SDS011;45905;50.570;10.428;2022-08-01T00:52:37;3.70;;;2.97;;
60032;SDS011;45905;50.570;10.428;2022-08-01T00:55:07;7.47;;;2.77;;
60032;SDS011;45905;50.570;10.428;2022-08-01T00:57:40;6.40;;;3.83;;
60032;SDS011;45905;50.570;10.428;2022-08-01T01:00:28;6.80;;;3.33;;
60032;SDS011;45905;50.570;10.428;2022-08-01T01:02:59;3.80;;;2.83;;
60032;SDS011;45905;50.570;10.428;2022-08-01T01:05:26;3.27;;;2.40;;
60032;SDS011;45905;50.570;10.428;2022-08-01T01:07:58;4.20;;;2.87;;
60032;SDS011;45905;50.570;10.428;2022-08-01T01:10:41;4.37;;;2.87;;
60032;SDS011;45905;50.570;10.428;2022-08-01T01:16:15;4.67;;;2.63;;
60032;SDS011;45905;50.570;10.428;2022-08-01T01:18:49;3.30;;;3.00;;
60032;SDS011;45905;50.570;10.428;2022-08-01T01:30:16;4.47;;;2.60;;
60032;SDS011;45905;50.570;10.428;2022-08-01T01:32:48;5.57;;;3.33;;
60032;SDS011;45905;50.570;10.428;2022-08-01T01:35:20;3.83;;;3.03;;
60032;SDS011;45905;50.570;10.428;2022-08-01T01:38:00;5.93;;;3.13;;
60032;SDS011;45905;50.570;10.428;2022-08-01T01:40:33;3.33;;;2.80;;
60032;SDS011;45905;50.570;10.428;2022-08-01T01:43:02;4.03;;;2.47;;
60032;SDS011;45905;50.570;10.428;2022-08-01T01:45:30;3.50;;;2.70;;
60032;SDS011;45905;50.570;10.428;2022-08-01T01:47:58;3.70;;;2.93;;
60032;SDS011;45905;50.570;10.428;2022-08-01T01:50:29;3.10;;;1.83;;
60032;SDS011;45905;50.570;10.428;2022-08-01T01:52:58;2.40;;;2.20;;
60032;SDS011;45905;50.570;10.428;2022-08-01T01:55:29;3.20;;;2.47;;
60032;SDS011;45905;50.570;10.428;2022-08-01T01:58:14;4.43;;;2.47;;
60032;SDS011;45905;50.570;10.428;2022-08-01T02:00:44;3.57;;;2.67;;
60032;SDS011;45905;50.570;10.428;2022-08-01T02:03:16;9.13;;;2.67;;
60032;SDS011;45905;50.570;10.428;2022-08-01T02:05:46;3.33;;;2.50;;
60032;SDS011;45905;50.570;10.428;2022-08-01T02:08:16;2.87;;;2.47;;
60032;SDS011;45905;50.570;10.428;2022-08-01T02:10:44;6.60;;;2.07;;
60032;SDS011;45905;50.570;10.428;2022-08-01T02:13:33;2.93;;;2.00;;
60032;SDS011;45905;50.570;10.428;2022-08-01T02:16:04;3.00;;;1.97;;
60032;SDS011;45905;50.570;10.428;2022-08-01T02:18:34;3.30;;;2.70;;
60032;SDS011;45905;50.570;10.428;2022-08-01T02:21:02;2.63;;;2.07;;
60032;SDS011;45905;50.570;10.428;2022-08-01T02:23:36;3.67;;;1.90;;
60032;SDS011;45905;50.570;10.428;2022-08-01T02:26:10;2.43;;;1.77;;
60032;SDS011;45905;50.570;10.428;2022-08-01T02:28:47;2.73;;;2.03;;
60032;SDS011;45905;50.570;10.428;2022-08-01T02:31:23;5.83;;;2.20;;
60032;SDS011;45905;50.570;10.428;2022-08-01T02:33:56;3.93;;;2.40;;
60032;SDS011;45905;50.570;10.428;2022-08-01T02:36:32;2.67;;;2.20;;
60032;SDS011;45905;50.570;10.428;2022-08-01T02:39:03;6.93;;;2.43;;
60032;SDS011;45905;50.570;10.428;2022-08-01T02:41:38;2.77;;;2.07;;
60032;SDS011;45905;50.570;10.428;2022-08-01T02:44:10;2.40;;;2.20;;
60032;SDS011;45905;50.570;10.428;2022-08-01T02:46:52;2.47;;;2.10;;
60032;SDS011;45905;50.570;10.428;2022-08-01T02:49:26;3.20;;;1.90;;
60032;SDS011;45905;50.570;10.428;2022-08-01T02:52:03;3.90;;;2.30;;
60032;SDS011;45905;50.570;10.428;2022-08-01T02:54:36;3.50;;;2.30;;
60032;SDS011;45905;50.570;10.428;2022-08-01T02:57:07;2.00;;;1.80;;
60032;SDS011;45905;50.570;10.428;2022-08-01T02:59:39;2.40;;;1.80;;
60032;SDS011;45905;50.570;10.428;2022-08-01T03:02:10;2.80;;;1.83;;
60032;SDS011;45905;50.570;10.428;2022-08-01T03:04:40;2.60;;;1.90;;
60032;SDS011;45905;50.570;10.428;2022-08-01T03:07:10;2.03;;;1.83;;
60032;SDS011;45905;50.570;10.428;2022-08-01T03:09:40;2.67;;;2.20;;
60032;SDS011;45905;50.570;10.428;2022-08-01T03:12:13;5.60;;;2.23;;
60032;SDS011;45905;50.570;10.428;2022-08-01T03:14:45;2.80;;;2.13;;
60032;SDS011;45905;50.570;10.428;2022-08-01T03:17:18;2.90;;;2.03;;
60032;SDS011;45905;50.570;10.428;2022-08-01T03:19:49;3.73;;;1.97;;
60032;SDS011;45905;50.570;10.428;2022-08-01T03:22:18;3.40;;;2.00;;
60032;SDS011;45905;50.570;10.428;2022-08-01T03:24:51;1.50;;;1.40;;
60032;SDS011;45905;50.570;10.428;2022-08-01T03:27:20;3.00;;;1.93;;
60032;SDS011;45905;50.570;10.428;2022-08-01T03:29:51;2.97;;;2.60;;
60032;SDS011;45905;50.570;10.428;2022-08-01T03:32:22;3.40;;;2.47;;
60032;SDS011;45905;50.570;10.428;2022-08-01T03:34:52;3.77;;;2.47;;
60032;SDS011;45905;50.570;10.428;2022-08-01T03:37:22;2.77;;;2.20;;
60032;SDS011;45905;50.570;10.428;2022-08-01T03:40:20;3.40;;;2.03;;
60032;SDS011;45905;50.570;10.428;2022-08-01T03:42:53;2.60;;;2.37;;
60032;SDS011;45905;50.570;10.428;2022-08-01T03:45:30;3.30;;;2.37;;
60032;SDS011;45905;50.570;10.428;2022-08-01T03:48:13;2.63;;;2.30;;
60032;SDS011;45905;50.570;10.428;2022-08-01T03:50:48;5.63;;;2.03;;
60032;SDS011;45905;50.570;10.428;2022-08-01T03:53:20;2.80;;;2.33;;
60032;SDS011;45905;50.570;10.428;2022-08-01T03:55:52;3.10;;;2.80;;
60032;SDS011;45905;50.570;10.428;2022-08-01T03:58:22;2.63;;;2.00;;
60032;SDS011;45905;50.570;10.428;2022-08-01T04:00:49;2.37;;;1.90;;
60032;SDS011;45905;50.570;10.428;2022-08-01T04:03:17;2.50;;;2.17;;
60032;SDS011;45905;50.570;10.428;2022-08-01T04:05:45;2.43;;;1.90;;
60032;SDS011;45905;50.570;10.428;2022-08-01T04:08:12;2.60;;;1.83;;
60032;SDS011;45905;50.570;10.428;2022-08-01T04:10:39;2.30;;;1.60;;
60032;SDS011;45905;50.570;10.428;2022-08-01T04:13:06;2.80;;;1.47;;
60032;SDS011;45905;50.570;10.428;2022-08-01T04:15:35;2.60;;;1.70;;
60032;SDS011;45905;50.570;10.428;2022-08-01T04:18:02;2.50;;;2.17;;
60032;SDS011;45905;50.570;10.428;2022-08-01T04:20:29;4.93;;;2.03;;
60032;SDS011;45905;50.570;10.428;2022-08-01T04:22:57;2.00;;;1.57;;
60032;SDS011;45905;50.570;10.428;2022-08-01T04:25:25;3.00;;;2.10;;
60032;SDS011;45905;50.570;10.428;2022-08-01T04:27:59;2.10;;;1.53;;
60032;SDS011;45905;50.570;10.428;2022-08-01T04:30:33;1.93;;;1.53;;
60032;SDS011;45905;50.570;10.428;2022-08-01T04:33:03;2.17;;;1.60;;
60032;SDS011;45905;50.570;10.428;2022-08-01T04:35:34;2.17;;;1.50;;
60032;SDS011;45905;50.570;10.428;2022-08-01T04:38:27;3.77;;;1.47;;
60032;SDS011;45905;50.570;10.428;2022-08-01T04:40:56;2.70;;;2.20;;
60032;SDS011;45905;50.570;10.428;2022-08-01T04:43:35;3.50;;;1.90;;
60032;SDS011;45905;50.570;10.428;2022-08-01T04:46:07;2.03;;;1.40;;
60032;SDS011;45905;50.570;10.428;2022-08-01T04:48:37;5.17;;;1.80;;
60032;SDS011;45905;50.570;10.428;2022-08-01T04:51:15;3.27;;;2.40;;
60032;SDS011;45905;50.570;10.428;2022-08-01T04:53:44;2.90;;;2.23;;
60032;SDS011;45905;50.570;10.428;2022-08-01T04:56:12;2.07;;;1.87;;
60032;SDS011;45905;50.570;10.428;2022-08-01T04:58:40;2.60;;;1.47;;
60032;SDS011;45905;50.570;10.428;2022-08-01T05:01:08;2.50;;;2.03;;
60032;SDS011;45905;50.570;10.428;2022-08-01T05:03:37;2.33;;;1.80;;
60032;SDS011;45905;50.570;10.428;2022-08-01T05:06:05;2.10;;;1.80;;
60032;SDS011;45905;50.570;10.428;2022-08-01T05:08:32;2.60;;;2.30;;
60032;SDS011;45905;50.570;10.428;2022-08-01T05:11:00;3.30;;;2.10;;
60032;SDS011;45905;50.570;10.428;2022-08-01T05:13:27;3.03;;;2.03;;
60032;SDS011;45905;50.570;10.428;2022-08-01T05:15:54;3.00;;;2.33;;
60032;SDS011;45905;50.570;10.428;2022-08-01T05:18:22;3.73;;;2.03;;
60032;SDS011;45905;50.570;10.428;2022-08-01T05:20:53;2.27;;;1.77;;
60032;SDS011;45905;50.570;10.428;2022-08-01T05:23:21;4.23;;;3.03;;
60032;SDS011;45905;50.570;10.428;2022-08-01T05:26:09;5.07;;;2.50;;
60032;SDS011;45905;50.570;10.428;2022-08-01T05:28:40;2.83;;;1.90;;
60032;SDS011;45905;50.570;10.428;2022-08-01T05:31:08;3.70;;;2.97;;
60032;SDS011;45905;50.570;10.428;2022-08-01T05:33:35;4.90;;;2.03;;
60032;SDS011;45905;50.570;10.428;2022-08-01T05:36:02;3.37;;;2.30;;
60032;SDS011;45905;50.570;10.428;2022-08-01T05:38:30;2.10;;;1.90;;
60032;SDS011;45905;50.570;10.428;2022-08-01T05:40:57;4.13;;;2.33;;
60032;SDS011;45905;50.570;10.428;2022-08-01T05:43:24;3.07;;;2.33;;
60032;SDS011;45905;50.570;10.428;2022-08-01T05:45:54;2.87;;;2.50;;
60032;SDS011;45905;50.570;10.428;2022-08-01T05:48:22;3.07;;;2.67;;
60032;SDS011;45905;50.570;10.428;2022-08-01T05:50:49;3.63;;;2.30;;
60032;SDS011;45905;50.570;10.428;2022-08-01T05:53:23;6.30;;;2.50;;
60032;SDS011;45905;50.570;10.428;2022-08-01T05:55:50;5.00;;;2.00;;
60032;SDS011;45905;50.570;10.428;2022-08-01T05:58:18;5.90;;;2.60;;
60032;SDS011;45905;50.570;10.428;2022-08-01T06:00:45;2.90;;;2.40;;
60032;SDS011;45905;50.570;10.428;2022-08-01T06:03:12;3.57;;;2.33;;
60032;SDS011;45905;50.570;10.428;2022-08-01T06:05:40;2.63;;;2.00;;
60032;SDS011;45905;50.570;10.428;2022-08-01T06:08:07;3.37;;;2.07;;
60032;SDS011;45905;50.570;10.428;2022-08-01T06:10:35;2.80;;;2.03;;
60032;SDS011;45905;50.570;10.428;2022-08-01T06:13:02;5.07;;;1.70;;
60032;SDS011;45905;50.570;10.428;2022-08-01T06:15:30;2.37;;;1.80;;
60032;SDS011;45905;50.570;10.428;2022-08-01T06:17:58;2.20;;;1.53;;
60032;SDS011;45905;50.570;10.428;2022-08-01T06:20:26;3.60;;;2.00;;
60032;SDS011;45905;50.570;10.428;2022-08-01T06:22:53;3.20;;;1.80;;
60032;SDS011;45905;50.570;10.428;2022-08-01T06:25:21;2.07;;;1.83;;
60032;SDS011;45905;50.570;10.428;2022-08-01T06:27:48;3.33;;;2.07;;
60032;SDS011;45905;50.570;10.428;2022-08-01T06:30:16;3.07;;;1.80;;
60032;SDS011;45905;50.570;10.428;2022-08-01T06:32:43;6.53;;;2.10;;
60032;SDS011;45905;50.570;10.428;2022-08-01T06:35:10;1.87;;;1.70;;
60032;SDS011;45905;50.570;10.428;2022-08-01T06:37:38;3.50;;;1.60;;
60032;SDS011;45905;50.570;10.428;2022-08-01T06:40:06;2.30;;;1.50;;
60032;SDS011;45905;50.570;10.428;2022-08-01T06:42:42;1.67;;;1.43;;
60032;SDS011;45905;50.570;10.428;2022-08-01T06:45:11;2.50;;;2.10;;
60032;SDS011;45905;50.570;10.428;2022-08-01T06:47:40;4.10;;;2.30;;
60032;SDS011;45905;50.570;10.428;2022-08-01T06:50:14;4.83;;;2.07;;
60032;SDS011;45905;50.570;10.428;2022-08-01T06:52:41;2.80;;;2.50;;
60032;SDS011;45905;50.570;10.428;2022-08-01T06:55:08;2.40;;;2.10;;
60032;SDS011;45905;50.570;10.428;2022-08-01T06:57:36;7.87;;;2.40;;
60032;SDS011;45905;50.570;10.428;2022-08-01T07:00:12;3.50;;;2.03;;
60032;SDS011;45905;50.570;10.428;2022-08-01T07:02:40;2.13;;;1.83;;
60032;SDS011;45905;50.570;10.428;2022-08-01T07:05:07;5.37;;;2.40;;
60032;SDS011;45905;50.570;10.428;2022-08-01T07:07:36;4.83;;;1.57;;
60032;SDS011;45905;50.570;10.428;2022-08-01T07:10:03;1.73;;;1.53;;
60032;SDS011;45905;50.570;10.428;2022-08-01T07:12:31;3.10;;;2.23;;
60032;SDS011;45905;50.570;10.428;2022-08-01T07:14:59;2.87;;;2.33;;
60032;SDS011;45905;50.570;10.428;2022-08-01T07:17:26;3.00;;;2.07;;
60032;SDS011;45905;50.570;10.428;2022-08-01T07:19:53;2.00;;;1.50;;
60032;SDS011;45905;50.570;10.428;2022-08-01T07:22:23;1.77;;;1.63;;
60032;SDS011;45905;50.570;10.428;2022-08-01T07:24:52;9.50;;;2.20;;
60032;SDS011;45905;50.570;10.428;2022-08-01T07:27:20;13.40;;;2.47;;
60032;SDS011;45905;50.570;10.428;2022-08-01T07:29:51;6.10;;;2.47;;
60032;SDS011;45905;50.570;10.428;2022-08-01T07:32:19;3.77;;;2.30;;
60032;SDS011;45905;50.570;10.428;2022-08-01T07:34:46;2.30;;;2.10;;
60032;SDS011;45905;50.570;10.428;2022-08-01T07:37:13;5.93;;;2.70;;
60032;SDS011;45905;50.570;10.428;2022-08-01T07:39:40;3.50;;;2.47;;
60032;SDS011;45905;50.570;10.428;2022-08-01T07:42:08;2.80;;;2.17;;
60032;SDS011;45905;50.570;10.428;2022-08-01T07:44:36;2.07;;;1.87;;
60032;SDS011;45905;50.570;10.428;2022-08-01T07:47:04;2.77;;;1.80;;
60032;SDS011;45905;50.570;10.428;2022-08-01T07:49:32;5.20;;;3.13;;
60032;SDS011;45905;50.570;10.428;2022-08-01T07:52:05;2.43;;;1.50;;
60032;SDS011;45905;50.570;10.428;2022-08-01T07:54:32;2.50;;;1.63;;
60032;SDS011;45905;50.570;10.428;2022-08-01T07:57:01;2.40;;;1.77;;
60032;SDS011;45905;50.570;10.428;2022-08-01T07:59:29;6.63;;;1.57;;
60032;SDS011;45905;50.570;10.428;2022-08-01T08:01:57;6.43;;;1.40;;
60032;SDS011;45905;50.570;10.428;2022-08-01T08:04:25;5.37;;;1.90;;
60032;SDS011;45905;50.570;10.428;2022-08-01T08:06:53;2.73;;;2.03;;
60032;SDS011;45905;50.570;10.428;2022-08-01T08:09:21;3.10;;;1.80;;
60032;SDS011;45905;50.570;10.428;2022-08-01T08:11:49;3.47;;;2.20;;
60032;SDS011;45905;50.570;10.428;2022-08-01T08:14:17;2.03;;;1.40;;
60032;SDS011;45905;50.570;10.428;2022-08-01T08:16:45;2.20;;;1.63;;
60032;SDS011;45905;50.570;10.428;2022-08-01T08:19:12;4.90;;;2.10;;
60032;SDS011;45905;50.570;10.428;2022-08-01T08:21:40;2.90;;;2.20;;
60032;SDS011;45905;50.570;10.428;2022-08-01T08:24:08;2.30;;;1.73;;
60032;SDS011;45905;50.570;10.428;2022-08-01T08:26:52;4.13;;;1.83;;
60032;SDS011;45905;50.570;10.428;2022-08-01T08:29:24;3.20;;;1.80;;
60032;SDS011;45905;50.570;10.428;2022-08-01T08:31:53;2.27;;;1.87;;
60032;SDS011;45905;50.570;10.428;2022-08-01T08:34:22;2.87;;;1.60;;
60032;SDS011;45905;50.570;10.428;2022-08-01T08:36:51;2.43;;;1.60;;
60032;SDS011;45905;50.570;10.428;2022-08-01T08:39:19;3.00;;;2.07;;
60032;SDS011;45905;50.570;10.428;2022-08-01T08:41:46;2.70;;;1.73;;
60032;SDS011;45905;50.570;10.428;2022-08-01T08:44:15;4.50;;;2.50;;
60032;SDS011;45905;50.570;10.428;2022-08-01T08:46:45;3.20;;;2.40;;
60032;SDS011;45905;50.570;10.428;2022-08-01T08:49:16;2.13;;;1.83;;
60032;SDS011;45905;50.570;10.428;2022-08-01T08:51:50;3.43;;;1.87;;
60032;SDS011;45905;50.570;10.428;2022-08-01T08:54:20;4.60;;;2.47;;
60032;SDS011;45905;50.570;10.428;2022-08-01T08:56:57;3.67;;;2.00;;
60032;SDS011;45905;50.570;10.428;2022-08-01T08:59:26;1.70;;;1.33;;
60032;SDS011;45905;50.570;10.428;2022-08-01T09:01:55;3.07;;;0.60;;
60032;SDS011;45905;50.570;10.428;2022-08-01T09:04:24;1.10;;;0.60;;
60032;SDS011;45905;50.570;10.428;2022-08-01T09:06:53;8.10;;;0.80;;
60032;SDS011;45905;50.570;10.428;2022-08-01T09:09:21;1.40;;;0.90;;
60032;SDS011;45905;50.570;10.428;2022-08-01T09:11:50;1.40;;;0.70;;
60032;SDS011;45905;50.570;10.428;2022-08-01T09:14:22;1.10;;;0.97;;
60032;SDS011;45905;50.570;10.428;2022-08-01T09:17:02;1.40;;;0.60;;
60032;SDS011;45905;50.570;10.428;2022-08-01T09:19:45;1.00;;;0.70;;
60032;SDS011;45905;50.570;10.428;2022-08-01T09:22:20;1.10;;;0.53;;
60032;SDS011;45905;50.570;10.428;2022-08-01T09:25:08;1.40;;;0.80;;
60032;SDS011;45905;50.570;10.428;2022-08-01T09:27:37;1.10;;;0.60;;
60032;SDS011;45905;50.570;10.428;2022-08-01T09:32:59;1.03;;;0.80;;
60032;SDS011;45905;50.570;10.428;2022-08-01T09:35:36;1.00;;;0.70;;
60032;SDS011;45905;50.570;10.428;2022-08-01T09:38:16;1.63;;;0.70;;
60032;SDS011;45905;50.570;10.428;2022-08-01T09:40:53;1.20;;;0.73;;
60032;SDS011;45905;50.570;10.428;2022-08-01T09:43:27;1.73;;;1.10;;
60032;SDS011;45905;50.570;10.428;2022-08-01T09:45:58;1.30;;;0.80;;
60032;SDS011;45905;50.570;10.428;2022-08-01T09:48:30;2.10;;;0.83;;
60032;SDS011;45905;50.570;10.428;2022-08-01T09:50:59;1.63;;;0.83;;
60032;SDS011;45905;50.570;10.428;2022-08-01T09:53:41;1.97;;;1.07;;
60032;SDS011;45905;50.570;10.428;2022-08-01T09:56:18;1.40;;;1.00;;
60032;SDS011;45905;50.570;10.428;2022-08-01T09:58:58;1.40;;;1.00;;
60032;SDS011;45905;50.570;10.428;2022-08-01T10:01:47;1.70;;;0.97;;
60032;SDS011;45905;50.570;10.428;2022-08-01T10:04:20;1.53;;;1.13;;
60032;SDS011;45905;50.570;10.428;2022-08-01T10:06:49;1.47;;;1.10;;
60032;SDS011;45905;50.570;10.428;2022-08-01T10:09:30;1.30;;;1.00;;
60032;SDS011;45905;50.570;10.428;2022-08-01T10:12:06;1.70;;;1.00;;
60032;SDS011;45905;50.570;10.428;2022-08-01T10:14:41;5.17;;;2.23;;
60032;SDS011;45905;50.570;10.428;2022-08-01T10:17:17;2.60;;;1.50;;
60032;SDS011;45905;50.570;10.428;2022-08-01T10:19:48;2.03;;;1.77;;
60032;SDS011;45905;50.570;10.428;2022-08-01T10:22:17;2.03;;;1.47;;
60032;SDS011;45905;50.570;10.428;2022-08-01T10:24:50;1.63;;;1.53;;
60032;SDS011;45905;50.570;10.428;2022-08-01T10:27:23;2.37;;;1.73;;
60032;SDS011;45905;50.570;10.428;2022-08-01T10:30:05;3.10;;;1.33;;
60032;SDS011;45905;50.570;10.428;2022-08-01T10:32:49;2.63;;;1.80;;
60032;SDS011;45905;50.570;10.428;2022-08-01T10:35:20;1.40;;;1.07;;
60032;SDS011;45905;50.570;10.428;2022-08-01T10:38:08;1.40;;;1.13;;
60032;SDS011;45905;50.570;10.428;2022-08-01T10:40:39;3.30;;;1.77;;
60032;SDS011;45905;50.570;10.428;2022-08-01T10:43:09;2.53;;;1.60;;
60032;SDS011;45905;50.570;10.428;2022-08-01T10:45:38;4.50;;;1.77;;
60032;SDS011;45905;50.570;10.428;2022-08-01T10:48:10;2.00;;;1.73;;
60032;SDS011;45905;50.570;10.428;2022-08-01T10:50:47;2.50;;;1.83;;
60032;SDS011;45905;50.570;10.428;2022-08-01T10:53:19;4.17;;;2.20;;
60032;SDS011;45905;50.570;10.428;2022-08-01T10:58:35;2.87;;;1.80;;
60032;SDS011;45905;50.570;10.428;2022-08-01T11:04:01;1.90;;;1.50;;
60032;SDS011;45905;50.570;10.428;2022-08-01T11:07:02;3.20;;;1.87;;
60032;SDS011;45905;50.570;10.428;2022-08-01T11:12:16;3.23;;;1.70;;
60032;SDS011;45905;50.570;10.428;2022-08-01T11:20:24;2.50;;;1.80;;
60032;SDS011;45905;50.570;10.428;2022-08-01T11:28:25;2.40;;;1.97;;
60032;SDS011;45905;50.570;10.428;2022-08-01T11:38:46;3.57;;;1.87;;
60032;SDS011;45905;50.570;10.428;2022-08-01T11:41:31;2.17;;;1.73;;
60032;SDS011;45905;50.570;10.428;2022-08-01T11:44:08;5.33;;;2.13;;
60032;SDS011;45905;50.570;10.428;2022-08-01T11:46:48;3.00;;;2.07;;
60032;SDS011;45905;50.570;10.428;2022-08-01T11:52:17;2.97;;;1.90;;
60032;SDS011;45905;50.570;10.428;2022-08-01T11:57:36;4.70;;;1.90;;
60032;SDS011;45905;50.570;10.428;2022-08-01T12:00:13;2.40;;;1.87;;
60032;SDS011;45905;50.570;10.428;2022-08-01T12:02:48;2.73;;;1.87;;
60032;SDS011;45905;50.570;10.428;2022-08-01T12:05:33;4.37;;;2.23;;
60032;SDS011;45905;50.570;10.428;2022-08-01T12:08:08;4.10;;;2.00;;
60032;SDS011;45905;50.570;10.428;2022-08-01T12:10:36;2.07;;;1.77;;
60032;SDS011;45905;50.570;10.428;2022-08-01T12:13:15;1.97;;;1.77;;
60032;SDS011;45905;50.570;10.428;2022-08-01T12:15:44;3.63;;;2.00;;
60032;SDS011;45905;50.570;10.428;2022-08-01T12:18:13;2.63;;;2.23;;
60032;SDS011;45905;50.570;10.428;2022-08-01T12:20:44;2.03;;;1.60;;
60032;SDS011;45905;50.570;10.428;2022-08-01T12:23:23;3.30;;;2.10;;
60032;SDS011;45905;50.570;10.428;2022-08-01T12:25:54;4.10;;;2.10;;
60032;SDS011;45905;50.570;10.428;2022-08-01T12:28:23;2.03;;;1.83;;
60032;SDS011;45905;50.570;10.428;2022-08-01T12:30:53;2.10;;;1.83;;
60032;SDS011;45905;50.570;10.428;2022-08-01T12:33:24;3.23;;;1.97;;
60032;SDS011;45905;50.570;10.428;2022-08-01T12:35:54;3.93;;;2.37;;
60032;SDS011;45905;50.570;10.428;2022-08-01T12:38:27;2.67;;;2.10;;
60032;SDS011;45905;50.570;10.428;2022-08-01T12:41:06;2.63;;;2.30;;
60032;SDS011;45905;50.570;10.428;2022-08-01T12:43:41;2.70;;;1.87;;
60032;SDS011;45905;50.570;10.428;2022-08-01T12:46:08;2.43;;;1.97;;
60032;SDS011;45905;50.570;10.428;2022-08-01T12:48:53;2.67;;;2.00;;
60032;SDS011;45905;50.570;10.428;2022-08-01T12:51:21;2.63;;;2.07;;
60032;SDS011;45905;50.570;10.428;2022-08-01T12:54:00;2.63;;;2.40;;
60032;SDS011;45905;50.570;10.428;2022-08-01T12:56:31;2.50;;;1.80;;
60032;SDS011;45905;50.570;10.428;2022-08-01T12:59:18;3.00;;;2.47;;
60032;SDS011;45905;50.570;10.428;2022-08-01T13:01:55;3.83;;;2.23;;
60032;SDS011;45905;50.570;10.428;2022-08-01T13:04:25;2.70;;;2.20;;
60032;SDS011;45905;50.570;10.428;2022-08-01T13:06:54;3.37;;;2.00;;
60032;SDS011;45905;50.570;10.428;2022-08-01T13:09:24;3.77;;;2.17;;
60032;SDS011;45905;50.570;10.428;2022-08-01T13:11:52;3.43;;;1.70;;
60032;SDS011;45905;50.570;10.428;2022-08-01T13:14:29;2.13;;;1.73;;
60032;SDS011;45905;50.570;10.428;2022-08-01T13:16:57;3.97;;;2.40;;
60032;SDS011;45905;50.570;10.428;2022-08-01T13:22:34;3.20;;;1.97;;
60032;SDS011;45905;50.570;10.428;2022-08-01T13:25:17;4.10;;;2.30;;
60032;SDS011;45905;50.570;10.428;2022-08-01T13:28:13;3.43;;;2.33;;
60032;SDS011;45905;50.570;10.428;2022-08-01T13:30:54;2.23;;;2.03;;
60032;SDS011;45905;50.570;10.428;2022-08-01T13:33:44;2.43;;;1.93;;
60032;SDS011;45905;50.570;10.428;2022-08-01T13:36:25;3.87;;;2.40;;
60032;SDS011;45905;50.570;10.428;2022-08-01T13:38:54;4.50;;;2.23;;
60032;SDS011;45905;50.570;10.428;2022-08-01T13:41:40;6.00;;;2.30;;
60032;SDS011;45905;50.570;10.428;2022-08-01T13:44:07;2.00;;;1.80;;
60032;SDS011;45905;50.570;10.428;2022-08-01T13:46:35;4.90;;;2.10;;
60032;SDS011;45905;50.570;10.428;2022-08-01T13:49:14;2.50;;;2.30;;
60032;SDS011;45905;50.570;10.428;2022-08-01T13:51:44;3.23;;;1.83;;
60032;SDS011;45905;50.570;10.428;2022-08-01T13:54:12;4.40;;;2.60;;
60032;SDS011;45905;50.570;10.428;2022-08-01T13:56:40;4.10;;;2.97;;
60032;SDS011;45905;50.570;10.428;2022-08-01T13:59:09;3.33;;;2.77;;
60032;SDS011;45905;50.570;10.428;2022-08-01T14:01:36;4.60;;;2.60;;
60032;SDS011;45905;50.570;10.428;2022-08-01T14:04:03;3.47;;;2.17;;
60032;SDS011;45905;50.570;10.428;2022-08-01T14:06:31;2.97;;;2.17;;
60032;SDS011;45905;50.570;10.428;2022-08-01T14:09:04;3.10;;;2.33;;
60032;SDS011;45905;50.570;10.428;2022-08-01T14:11:49;2.30;;;2.10;;
60032;SDS011;45905;50.570;10.428;2022-08-01T14:14:16;3.43;;;2.80;;
60032;SDS011;45905;50.570;10.428;2022-08-01T14:16:43;5.10;;;2.00;;
60032;SDS011;45905;50.570;10.428;2022-08-01T14:19:13;3.37;;;2.47;;
60032;SDS011;45905;50.570;10.428;2022-08-01T14:21:44;3.70;;;2.60;;
60032;SDS011;45905;50.570;10.428;2022-08-01T14:24:11;3.50;;;2.63;;
60032;SDS011;45905;50.570;10.428;2022-08-01T14:26:39;2.93;;;2.30;;
60032;SDS011;45905;50.570;10.428;2022-08-01T14:29:06;3.93;;;2.13;;
60032;SDS011;45905;50.570;10.428;2022-08-01T14:31:33;3.87;;;2.23;;
60032;SDS011;45905;50.570;10.428;2022-08-01T14:34:00;3.30;;;2.43;;
60032;SDS011;45905;50.570;10.428;2022-08-01T14:36:28;4.00;;;2.30;;
60032;SDS011;45905;50.570;10.428;2022-08-01T14:39:03;5.60;;;2.40;;
60032;SDS011;45905;50.570;10.428;2022-08-01T14:41:32;2.77;;;2.30;;
60032;SDS011;45905;50.570;10.428;2022-08-01T14:43:59;2.80;;;1.97;;
60032;SDS011;45905;50.570;10.428;2022-08-01T14:46:26;2.73;;;1.80;;
60032;SDS011;45905;50.570;10.428;2022-08-01T14:48:56;2.10;;;1.90;;
60032;SDS011;45905;50.570;10.428;2022-08-01T14:51:24;5.50;;;2.20;;
60032;SDS011;45905;50.570;10.428;2022-08-01T14:53:51;2.40;;;1.80;;
60032;SDS011;45905;50.570;10.428;2022-08-01T14:56:19;2.83;;;1.97;;
60032;SDS011;45905;50.570;10.428;2022-08-01T14:58:46;2.70;;;1.73;;
60032;SDS011;45905;50.570;10.428;2022-08-01T15:01:14;2.17;;;1.87;;
60032;SDS011;45905;50.570;10.428;2022-08-01T15:03:41;2.70;;;1.80;;
60032;SDS011;45905;50.570;10.428;2022-08-01T15:06:08;2.90;;;1.90;;
60032;SDS011;45905;50.570;10.428;2022-08-01T15:08:37;3.07;;;2.10;;
60032;SDS011;45905;50.570;10.428;2022-08-01T15:11:05;2.90;;;2.30;;
60032;SDS011;45905;50.570;10.428;2022-08-01T15:13:32;2.40;;;1.73;;
60032;SDS011;45905;50.570;10.428;2022-08-01T15:16:02;2.60;;;2.20;;
60032;SDS011;45905;50.570;10.428;2022-08-01T15:18:29;3.20;;;2.23;;
60032;SDS011;45905;50.570;10.428;2022-08-01T15:20:59;2.67;;;1.63;;
60032;SDS011;45905;50.570;10.428;2022-08-01T15:23:26;2.50;;;2.00;;
60032;SDS011;45905;50.570;10.428;2022-08-01T15:25:54;2.50;;;1.60;;
60032;SDS011;45905;50.570;10.428;2022-08-01T15:28:21;2.60;;;2.40;;
60032;SDS011;45905;50.570;10.428;2022-08-01T15:30:48;3.33;;;2.40;;
60032;SDS011;45905;50.570;10.428;2022-08-01T15:33:15;2.90;;;1.80;;
60032;SDS011;45905;50.570;10.428;2022-08-01T15:35:43;2.57;;;2.20;;
60032;SDS011;45905;50.570;10.428;2022-08-01T15:38:10;10.40;;;1.87;;
60032;SDS011;45905;50.570;10.428;2022-08-01T15:40:37;2.97;;;2.17;;
60032;SDS011;45905;50.570;10.428;2022-08-01T15:43:05;2.20;;;1.70;;
60032;SDS011;45905;50.570;10.428;2022-08-01T15:45:32;3.07;;;2.10;;
60032;SDS011;45905;50.570;10.428;2022-08-01T15:48:15;3.40;;;1.80;;